Time;durP1;ratioP1;P1;durP2;ratioP2;P2;SDS_P1;SDS_P2;PMS_P1;PMS_P2;Temp;Humidity;BMP_temperature;BMP_pressure;BME280_temperature;BME280_humidity;BME280_pressure;Samples;Min_cycle;Max_cycle;Signal;HPM_P1;HPM_P2
2021/10/15 00:02:23;;;;;;;8.80;6.33;;;10.70;72.50;;;;;;5119073;28;20166;-83
2021/10/15 00:04:59;;;;;;;9.20;6.17;;;10.70;72.70;;;;;;5122954;28;20166;-85
2021/10/15 00:07:43;;;;;;;10.97;6.60;;;10.90;72.80;;;;;;5125064;28;20167;-86
2021/10/15 00:10:19;;;;;;;9.03;5.80;;;10.70;73.00;;;;;;5107661;28;20241;-84
2021/10/15 00:12:48;;;;;;;14.47;6.83;;;10.70;74.30;;;;;;5117596;28;20163;-85
2021/10/15 00:15:14;;;;;;;13.00;6.53;;;10.70;75.20;;;;;;5136184;28;20178;-90
2021/10/15 00:17:42;;;;;;;11.73;6.60;;;10.70;74.50;;;;;;5133294;28;20170;-85
2021/10/15 00:20:10;;;;;;;11.37;6.47;;;10.70;74.00;;;;;;5138564;28;20189;-86
2021/10/15 00:22:39;;;;;;;11.47;7.20;;;10.80;73.80;;;;;;5129508;28;20178;-90
2021/10/15 00:25:41;;;;;;;12.33;6.37;;;10.80;73.70;;;;;;5126138;28;20163;-84
2021/10/15 00:28:09;;;;;;;15.87;6.70;;;10.80;74.50;;;;;;5136002;28;20642;-86
2021/10/15 00:31:11;;;;;;;;;;;;;;;;;;;;;
2021/10/15 00:33:43;;;;;;;15.87;7.00;;;10.80;75.30;;;;;;5137944;28;20179;-89
2021/10/15 00:36:41;;;;;;;10.93;6.93;;;10.80;75.40;;;;;;5136842;28;20163;-82
2021/10/15 00:39:20;;;;;;;10.00;6.93;;;10.90;75.50;;;;;;5134038;28;20248;-91
2021/10/15 00:42:05;;;;;;;11.00;6.57;;;10.90;75.60;;;;;;5141411;28;20177;-87
2021/10/15 00:44:37;;;;;;;10.10;6.37;;;10.80;76.30;;;;;;5141444;27;20182;-89
2021/10/15 00:47:27;;;;;;;9.17;6.30;;;10.90;77.30;;;;;;5140957;27;20151;-85
2021/10/15 00:50:00;;;;;;;11.70;6.60;;;10.90;77.30;;;;;;5101886;28;20199;-87
2021/10/15 00:52:59;;;;;;;7.77;6.10;;;10.90;77.30;;;;;;5117186;28;20187;-84
2021/10/15 00:55:31;;;;;;;11.13;6.20;;;10.90;76.90;;;;;;5098542;28;20634;-84
2021/10/15 00:58:08;;;;;;;10.73;7.00;;;10.90;78.80;;;;;;5116639;28;20646;-85
2021/10/15 01:00:56;;;;;;;;;;;;;;;;;;;;;
2021/10/15 01:03:51;;;;;;;11.93;6.57;;;11.00;78.30;;;;;;5128226;28;20221;-83
2021/10/15 01:07:20;;;;;;;11.00;6.47;;;11.00;78.70;;;;;;5098062;28;20183;-84
2021/10/15 01:09:38;;;;;;;9.13;6.67;;;11.10;79.30;;;;;;5103735;27;20218;-84
2021/10/15 01:12:04;;;;;;;11.30;8.13;;;11.10;78.40;;;;;;5115846;28;20169;-84
2021/10/15 01:15:04;;;;;;;10.53;7.00;;;11.10;78.10;;;;;;5115722;28;20175;-85
2021/10/15 01:17:52;;;;;;;9.43;6.90;;;11.10;78.60;;;;;;5116921;27;20249;-83
2021/10/15 01:20:38;;;;;;;8.70;5.80;;;11.20;79.80;;;;;;5119071;28;20171;-83
2021/10/15 01:23:12;;;;;;;10.07;7.07;;;11.20;78.40;;;;;;5116385;28;20198;-89
2021/10/15 01:26:07;;;;;;;10.57;6.63;;;11.30;77.80;;;;;;5097611;28;20601;-85
2021/10/15 01:28:54;;;;;;;11.90;7.07;;;11.20;78.20;;;;;;5119178;28;20182;-84
2021/10/15 01:31:25;;;;;;;11.73;6.83;;;11.20;80.10;;;;;;5119277;28;20224;-83
2021/10/15 01:33:53;;;;;;;11.47;7.40;;;11.20;80.60;;;;;;5096732;28;20634;-84
2021/10/15 01:36:26;;;;;;;11.13;7.27;;;11.30;81.20;;;;;;5118150;28;20163;-92
2021/10/15 01:39:06;;;;;;;11.33;6.70;;;11.30;80.90;;;;;;5116740;28;20224;-88
2021/10/15 01:41:37;;;;;;;8.27;6.90;;;11.30;82.00;;;;;;5115796;28;20198;-92
2021/10/15 01:44:03;;;;;;;12.70;7.17;;;11.30;81.90;;;;;;5097869;28;20241;-93
2021/10/15 01:46:31;;;;;;;10.17;6.40;;;11.30;82.20;;;;;;5099412;28;20179;-92
2021/10/15 01:48:57;;;;;;;9.67;7.07;;;11.30;82.90;;;;;;5120609;28;20225;-86
2021/10/15 01:51:26;;;;;;;11.60;7.63;;;11.30;82.80;;;;;;5138132;28;20197;-85
2021/10/15 01:53:55;;;;;;;11.17;7.50;;;11.40;82.90;;;;;;5129377;28;20178;-94
2021/10/15 01:56:21;;;;;;;11.43;7.10;;;11.40;82.80;;;;;;5117880;28;20171;-94
2021/10/15 01:58:48;;;;;;;10.47;7.40;;;11.50;81.00;;;;;;5116763;28;20522;-92
2021/10/15 02:01:19;;;;;;;11.53;6.83;;;11.50;81.20;;;;;;5116536;28;20191;-94
2021/10/15 02:03:46;;;;;;;12.37;7.40;;;11.50;81.50;;;;;;5116147;28;20212;-94
2021/10/15 02:06:13;;;;;;;11.97;7.23;;;11.50;82.20;;;;;;5116559;28;20177;-95
2021/10/15 02:08:38;;;;;;;11.93;7.23;;;11.50;82.30;;;;;;5116176;28;20203;-94
2021/10/15 02:11:05;;;;;;;9.97;7.23;;;11.60;81.60;;;;;;5116194;28;20221;-93
2021/10/15 02:13:34;;;;;;;12.70;7.13;;;11.60;80.40;;;;;;5114791;28;20530;-92
2021/10/15 02:16:00;;;;;;;9.57;7.37;;;11.60;80.70;;;;;;5115763;28;20623;-92
2021/10/15 02:18:26;;;;;;;11.93;7.23;;;11.60;80.70;;;;;;5115756;28;20653;-87
2021/10/15 02:20:54;;;;;;;11.73;7.97;;;11.70;80.40;;;;;;5116480;28;20163;-93
2021/10/15 02:23:22;;;;;;;8.73;7.00;;;11.70;80.00;;;;;;5116078;28;20171;-92
2021/10/15 02:25:50;;;;;;;13.03;6.90;;;11.60;80.00;;;;;;5116305;28;20159;-93
2021/10/15 02:28:17;;;;;;;9.87;7.03;;;11.60;80.70;;;;;;5115917;28;20317;-92
2021/10/15 02:30:43;;;;;;;9.67;7.20;;;11.70;81.30;;;;;;5117164;28;20654;-92
2021/10/15 02:33:10;;;;;;;10.70;7.73;;;11.60;80.30;;;;;;5115239;28;20175;-91
2021/10/15 02:35:36;;;;;;;10.57;6.60;;;11.70;79.60;;;;;;5116733;28;20163;-92
2021/10/15 02:38:01;;;;;;;9.20;7.23;;;11.70;79.90;;;;;;5116875;28;20236;-88
2021/10/15 02:40:34;;;;;;;10.70;7.37;;;11.70;80.70;;;;;;5116023;28;20597;-92
2021/10/15 02:42:59;;;;;;;11.97;7.83;;;11.70;80.60;;;;;;5116621;28;20553;-92
2021/10/15 02:45:25;;;;;;;9.20;7.30;;;11.70;80.00;;;;;;5115325;28;20174;-93
2021/10/15 02:47:57;;;;;;;8.50;6.80;;;11.80;78.70;;;;;;5115047;28;20171;-87
2021/10/15 02:50:23;;;;;;;11.40;7.13;;;11.70;77.00;;;;;;5116430;28;20232;-87
2021/10/15 02:52:49;;;;;;;9.10;6.33;;;11.80;75.90;;;;;;5135893;28;20174;-82
2021/10/15 02:55:16;;;;;;;12.83;8.03;;;11.80;75.10;;;;;;5130959;28;20211;-92
2021/10/15 02:57:44;;;;;;;10.00;7.20;;;11.80;76.00;;;;;;5119714;28;20171;-88
2021/10/15 03:00:10;;;;;;;10.50;7.30;;;11.80;74.80;;;;;;5113760;28;20179;-93
2021/10/15 03:02:36;;;;;;;13.47;6.93;;;11.80;76.20;;;;;;5115554;28;20211;-90
2021/10/15 03:05:08;;;;;;;10.43;7.43;;;11.70;77.80;;;;;;5115563;28;20196;-85
2021/10/15 03:07:38;;;;;;;10.43;7.47;;;11.70;80.60;;;;;;5116469;28;20178;-88
2021/10/15 03:10:08;;;;;;;11.87;7.30;;;11.70;79.80;;;;;;5117603;28;20203;-84
2021/10/15 03:12:38;;;;;;;8.77;7.33;;;11.80;79.80;;;;;;5114222;28;20193;-84
2021/10/15 03:15:06;;;;;;;11.30;6.97;;;11.80;79.40;;;;;;5115705;28;20171;-91
2021/10/15 03:17:35;;;;;;;11.33;7.00;;;11.80;79.20;;;;;;5115161;28;20167;-84
2021/10/15 03:20:01;;;;;;;12.20;7.40;;;11.80;81.30;;;;;;5113413;28;20178;-92
2021/10/15 03:22:26;;;;;;;11.07;7.37;;;11.70;81.40;;;;;;5114400;28;20212;-90
2021/10/15 03:24:52;;;;;;;10.10;7.70;;;11.70;82.70;;;;;;5097178;28;20170;-85
2021/10/15 03:27:18;;;;;;;11.50;6.73;;;11.70;82.60;;;;;;5114133;28;20166;-85
2021/10/15 03:29:44;;;;;;;10.17;7.27;;;11.80;81.60;;;;;;5113134;28;20213;-86
2021/10/15 03:32:22;;;;;;;12.13;7.00;;;11.80;81.60;;;;;;5114235;28;20242;-85
2021/10/15 03:34:55;;;;;;;9.80;7.70;;;11.80;82.20;;;;;;5112493;28;20216;-85
2021/10/15 03:37:23;;;;;;;13.30;7.70;;;11.80;81.50;;;;;;5113813;28;20282;-85
2021/10/15 03:39:50;;;;;;;11.23;7.13;;;11.80;82.50;;;;;;5111666;28;20167;-84
2021/10/15 03:42:16;;;;;;;10.27;7.13;;;11.90;81.20;;;;;;5113745;28;20197;-84
2021/10/15 03:44:43;;;;;;;10.37;7.03;;;11.90;81.60;;;;;;5116764;28;20660;-84
2021/10/15 03:47:09;;;;;;;9.97;6.67;;;12.10;81.70;;;;;;5103026;28;20269;-86
2021/10/15 03:49:35;;;;;;;12.83;7.27;;;11.90;81.10;;;;;;5118174;28;20603;-87
2021/10/15 03:52:01;;;;;;;12.63;7.50;;;12.00;81.60;;;;;;5095566;28;20248;-87
2021/10/15 03:54:27;;;;;;;12.87;7.10;;;12.00;79.20;;;;;;5114337;28;20163;-86
2021/10/15 03:56:52;;;;;;;9.87;7.30;;;12.10;79.40;;;;;;5113680;28;20623;-83
2021/10/15 03:59:18;;;;;;;10.60;7.67;;;12.10;77.60;;;;;;5113449;28;20174;-86
2021/10/15 04:01:44;;;;;;;9.43;6.97;;;12.10;77.10;;;;;;5113521;28;20155;-86
2021/10/15 04:04:10;;;;;;;10.67;7.63;;;12.10;79.10;;;;;;5095333;28;20208;-83
2021/10/15 04:06:36;;;;;;;12.53;7.80;;;12.10;78.40;;;;;;5116077;28;20253;-84
2021/10/15 04:09:02;;;;;;;10.80;7.80;;;12.00;79.40;;;;;;5121824;28;20202;-87
2021/10/15 04:11:28;;;;;;;10.77;7.07;;;12.00;79.90;;;;;;5125421;28;20167;-84
2021/10/15 04:13:53;;;;;;;10.07;7.83;;;12.00;81.50;;;;;;5101186;28;20695;-85
2021/10/15 04:16:29;;;;;;;13.10;7.83;;;12.00;81.00;;;;;;5118890;28;20163;-94
2021/10/15 04:18:55;;;;;;;10.93;7.43;;;12.00;81.10;;;;;;5100704;28;20227;-93
2021/10/15 04:21:24;;;;;;;11.20;7.50;;;12.10;81.20;;;;;;5100655;28;20179;-93
2021/10/15 04:23:50;;;;;;;9.87;7.50;;;12.00;79.90;;;;;;5118596;28;20170;-92
2021/10/15 04:26:15;;;;;;;12.53;7.60;;;12.10;81.50;;;;;;5119056;28;20167;-93
2021/10/15 04:28:41;;;;;;;11.43;7.77;;;12.10;79.30;;;;;;5122649;28;20170;-84
2021/10/15 04:31:07;;;;;;;10.63;7.67;;;12.20;79.50;;;;;;5130894;28;20234;-81
2021/10/15 04:33:36;;;;;;;10.40;7.67;;;12.10;79.20;;;;;;5122897;28;20557;-81
2021/10/15 04:36:03;;;;;;;11.17;7.63;;;12.20;79.70;;;;;;5102437;28;20183;-86
2021/10/15 04:38:31;;;;;;;13.23;7.70;;;12.20;79.20;;;;;;5116402;28;20266;-87
2021/10/15 04:40:56;;;;;;;11.83;8.07;;;12.20;79.20;;;;;;5121592;28;20179;-88
2021/10/15 04:43:23;;;;;;;15.07;7.70;;;12.30;76.50;;;;;;5118239;28;20164;-90
2021/10/15 04:45:50;;;;;;;12.83;7.63;;;12.30;76.90;;;;;;5099865;28;20170;-91
2021/10/15 04:48:16;;;;;;;12.20;7.97;;;12.20;77.30;;;;;;5120390;28;20151;-85
2021/10/15 04:50:42;;;;;;;14.10;7.37;;;12.10;77.30;;;;;;5138641;28;20272;-83
2021/10/15 04:53:08;;;;;;;12.27;7.03;;;12.20;78.00;;;;;;5130486;28;20713;-82
2021/10/15 04:55:36;;;;;;;11.97;7.10;;;12.30;78.90;;;;;;5127753;28;20206;-82
2021/10/15 04:58:03;;;;;;;10.37;7.13;;;12.30;76.10;;;;;;5121804;28;20175;-85
2021/10/15 05:00:36;;;;;;;9.97;7.37;;;12.30;75.30;;;;;;5138734;28;20143;-83
2021/10/15 05:03:25;;;;;;;11.40;7.33;;;12.20;77.70;;;;;;5106189;28;20213;-92
2021/10/15 05:05:50;;;;;;;13.53;6.83;;;12.40;76.20;;;;;;5123221;28;20244;-92
2021/10/15 05:08:21;;;;;;;11.77;7.70;;;12.20;78.70;;;;;;5108361;28;20159;-89
2021/10/15 05:11:00;;;;;;;10.03;7.67;;;12.30;77.20;;;;;;5121454;28;20189;-90
2021/10/15 05:13:25;;;;;;;11.13;7.50;;;12.30;78.40;;;;;;5124355;28;20254;-93
2021/10/15 05:15:51;;;;;;;11.33;6.93;;;12.20;78.50;;;;;;5123761;28;20203;-90
2021/10/15 05:18:17;;;;;;;11.30;7.87;;;12.20;78.70;;;;;;5122552;28;20174;-92
2021/10/15 05:20:44;;;;;;;11.87;7.40;;;12.10;80.30;;;;;;5122876;28;20175;-93
2021/10/15 05:23:11;;;;;;;12.30;6.97;;;12.20;80.70;;;;;;5105257;28;20259;-90
2021/10/15 05:25:37;;;;;;;10.83;6.97;;;12.20;80.70;;;;;;5109058;28;20183;-92
2021/10/15 05:28:04;;;;;;;10.70;6.83;;;12.20;79.00;;;;;;5128406;28;20205;-93
2021/10/15 05:30:31;;;;;;;11.63;7.47;;;12.20;79.80;;;;;;5104567;28;20210;-91
2021/10/15 05:32:59;;;;;;;11.00;7.70;;;12.20;80.80;;;;;;5131429;28;20242;-90
2021/10/15 05:35:31;;;;;;;9.30;7.43;;;12.20;80.90;;;;;;5135484;27;20171;-83
2021/10/15 05:37:56;;;;;;;12.40;7.77;;;12.20;82.00;;;;;;5116764;28;20263;-83
2021/10/15 05:40:22;;;;;;;12.37;8.57;;;12.20;81.60;;;;;;5136828;27;20186;-85
2021/10/15 05:42:49;;;;;;;9.87;7.13;;;12.30;82.30;;;;;;5119619;28;20179;-89
2021/10/15 05:45:16;;;;;;;10.87;7.87;;;12.30;79.40;;;;;;5136141;27;20166;-91
2021/10/15 05:47:43;;;;;;;10.03;7.80;;;12.30;81.60;;;;;;5117290;28;20185;-93
2021/10/15 05:50:24;;;;;;;13.67;7.50;;;12.30;81.10;;;;;;5106254;28;20195;-86
2021/10/15 05:53:32;;;;;;;12.37;8.27;;;12.50;79.70;;;;;;5124849;27;20190;-86
2021/10/15 05:56:33;;;;;;;;;;;;;;;;;;;;;
2021/10/15 05:59:03;;;;;;;12.17;8.30;;;12.50;77.50;;;;;;5120831;28;20213;-87
2021/10/15 06:01:32;;;;;;;13.27;7.73;;;12.40;79.20;;;;;;5122719;28;20626;-95
2021/10/15 06:14:45;;;;;;;11.43;8.60;;;12.30;84.60;;;;;;5109512;27;20209;-93
2021/10/15 06:17:12;;;;;;;19.03;8.53;;;12.40;85.10;;;;;;5117846;28;20546;-91
2021/10/15 06:22:26;;;;;;;11.73;8.13;;;12.30;85.50;;;;;;5127641;28;20147;-81
2021/10/15 06:24:58;;;;;;;13.83;9.37;;;12.50;82.10;;;;;;5138573;27;20185;-88
2021/10/15 06:27:27;;;;;;;12.50;9.33;;;12.50;82.70;;;;;;5116138;28;20166;-82
2021/10/15 06:29:57;;;;;;;10.80;8.10;;;12.50;83.30;;;;;;5124284;28;20231;-94
2021/10/15 06:32:23;;;;;;;16.23;9.60;;;12.40;84.40;;;;;;5120452;28;20208;-92
2021/10/15 06:34:52;;;;;;;12.57;8.37;;;12.40;85.00;;;;;;5119279;28;20163;-89
2021/10/15 06:37:18;;;;;;;12.43;8.83;;;12.40;86.20;;;;;;5099930;28;20168;-84
2021/10/15 06:39:43;;;;;;;12.93;9.17;;;12.50;84.50;;;;;;5119999;28;20178;-86
2021/10/15 06:42:09;;;;;;;12.03;8.90;;;12.40;84.30;;;;;;5118780;28;20658;-94
2021/10/15 06:44:35;;;;;;;13.43;9.63;;;12.70;85.30;;;;;;5099740;28;20179;-90
2021/10/15 06:47:02;;;;;;;12.60;9.03;;;12.40;84.90;;;;;;5119782;28;20170;-91
2021/10/15 06:49:31;;;;;;;11.93;9.00;;;12.50;85.30;;;;;;5100106;28;20659;-95
2021/10/15 06:51:57;;;;;;;11.97;8.30;;;12.50;85.80;;;;;;5099328;28;20198;-93
2021/10/15 06:54:24;;;;;;;14.77;9.57;;;12.50;86.10;;;;;;5121183;28;20186;-82
2021/10/15 06:56:49;;;;;;;12.67;8.90;;;12.60;85.40;;;;;;5131700;28;20171;-87
2021/10/15 06:59:18;;;;;;;14.67;9.30;;;12.60;85.10;;;;;;5122048;28;20651;-94
2021/10/15 07:01:45;;;;;;;12.63;9.07;;;12.50;86.80;;;;;;5119305;28;20159;-90
2021/10/15 07:04:10;;;;;;;13.40;9.37;;;12.50;87.30;;;;;;5101670;28;20650;-95
2021/10/15 07:06:36;;;;;;;18.17;9.43;;;12.50;86.50;;;;;;5118349;28;20171;-92
2021/10/15 07:09:08;;;;;;;15.30;9.57;;;12.70;84.10;;;;;;5100202;28;20171;-96
2021/10/15 07:11:38;;;;;;;13.23;8.73;;;12.80;80.80;;;;;;5119757;28;20171;-88
2021/10/15 07:14:07;;;;;;;14.27;9.33;;;12.80;82.10;;;;;;5137999;28;20230;-87
2021/10/15 07:16:34;;;;;;;15.30;9.67;;;12.80;83.10;;;;;;5129798;28;20196;-94
2021/10/15 07:19:00;;;;;;;13.07;9.77;;;12.80;83.90;;;;;;5106025;28;20159;-93
2021/10/15 07:21:29;;;;;;;13.30;9.67;;;12.60;87.10;;;;;;5120716;28;20179;-88
2021/10/15 07:23:55;;;;;;;14.87;9.00;;;12.60;86.80;;;;;;5108116;28;20191;-83
2021/10/15 07:26:22;;;;;;;15.33;9.67;;;12.60;86.60;;;;;;5135106;28;20198;-84
2021/10/15 07:28:48;;;;;;;13.10;9.73;;;12.80;84.70;;;;;;5128455;28;20179;-86
2021/10/15 07:31:14;;;;;;;15.20;9.70;;;12.90;83.40;;;;;;5089857;28;20178;-91
2021/10/15 07:33:42;;;;;;;15.93;10.40;;;12.90;81.70;;;;;;5124013;28;20244;-93
2021/10/15 07:36:08;;;;;;;16.53;9.70;;;12.80;82.00;;;;;;5111355;28;20172;-89
2021/10/15 07:38:34;;;;;;;16.10;9.93;;;12.80;82.60;;;;;;5137231;27;20159;-87
2021/10/15 07:41:00;;;;;;;15.30;10.57;;;12.70;84.50;;;;;;5117143;28;20282;-82
2021/10/15 07:43:28;;;;;;;16.97;10.40;;;12.70;86.30;;;;;;5119000;28;20182;-87
2021/10/15 07:45:54;;;;;;;13.60;10.57;;;12.90;86.40;;;;;;5137722;27;20193;-89
2021/10/15 07:48:23;;;;;;;20.43;9.93;;;12.90;85.10;;;;;;5117294;28;20163;-82
2021/10/15 07:50:51;;;;;;;14.40;9.70;;;12.90;83.60;;;;;;5132004;28;20202;-93
2021/10/15 07:53:20;;;;;;;17.80;10.60;;;12.80;85.00;;;;;;5122731;28;20212;-94
2021/10/15 07:55:50;;;;;;;14.70;10.40;;;12.90;85.80;;;;;;5128887;28;20169;-91
2021/10/15 07:58:16;;;;;;;16.13;9.83;;;12.90;86.00;;;;;;5118661;28;20160;-93
2021/10/15 08:00:42;;;;;;;14.17;9.87;;;13.00;84.30;;;;;;5119508;28;20177;-83
2021/10/15 08:03:11;;;;;;;16.10;10.67;;;13.00;85.20;;;;;;5120100;28;20183;-90
2021/10/15 08:05:36;;;;;;;14.57;11.10;;;13.00;82.10;;;;;;5135949;28;20235;-93
2021/10/15 08:08:05;;;;;;;15.90;10.07;;;13.00;83.30;;;;;;5122200;28;20156;-86
2021/10/15 08:10:30;;;;;;;17.33;10.23;;;13.00;82.60;;;;;;5136493;28;20199;-92
2021/10/15 08:13:01;;;;;;;15.20;10.23;;;13.00;84.30;;;;;;5104519;28;20251;-95
2021/10/15 08:15:28;;;;;;;17.30;10.37;;;13.10;81.10;;;;;;5128315;28;20167;-94
2021/10/15 08:17:55;;;;;;;18.57;11.60;;;13.10;83.90;;;;;;5110804;28;20171;-94
2021/10/15 08:20:22;;;;;;;16.50;10.10;;;13.00;84.00;;;;;;5128513;28;20164;-96
2021/10/15 08:22:49;;;;;;;12.87;9.27;;;13.00;85.60;;;;;;5126822;28;20163;-95
2021/10/15 08:25:16;;;;;;;14.80;10.20;;;13.00;85.80;;;;;;5127665;28;20167;-95
2021/10/15 08:27:48;;;;;;;12.10;9.57;;;13.10;83.40;;;;;;5134301;28;20500;-94
2021/10/15 08:30:13;;;;;;;13.63;10.30;;;13.20;84.00;;;;;;5132580;28;20214;-96
2021/10/15 08:32:39;;;;;;;15.97;9.77;;;13.20;83.10;;;;;;5107913;28;20271;-96
2021/10/15 08:35:09;;;;;;;16.37;10.03;;;13.20;83.90;;;;;;5128438;28;20176;-93
2021/10/15 08:37:37;;;;;;;17.57;10.97;;;13.20;84.10;;;;;;5125606;28;20250;-94
2021/10/15 08:40:06;;;;;;;15.70;10.23;;;13.40;84.30;;;;;;5109042;28;20179;-95
2021/10/15 08:42:32;;;;;;;14.07;9.80;;;13.40;83.00;;;;;;5130601;28;20174;-95
2021/10/15 08:44:58;;;;;;;14.63;10.03;;;13.30;82.50;;;;;;5107559;28;20172;-96
2021/10/15 08:47:25;;;;;;;15.73;10.20;;;13.60;81.90;;;;;;5127175;28;20227;-95
2021/10/15 08:49:56;;;;;;;16.97;10.63;;;13.60;79.40;;;;;;5126368;28;20645;-96
2021/10/15 08:52:30;;;;;;;12.77;10.70;;;13.60;81.70;;;;;;5110537;28;20186;-91
2021/10/15 08:54:56;;;;;;;14.37;10.03;;;13.60;81.70;;;;;;5108335;28;20195;-96
2021/10/15 08:57:34;;;;;;;15.53;10.00;;;13.70;83.60;;;;;;5117104;28;20221;-95
2021/10/15 09:00:33;;;;;;;15.47;9.90;;;13.40;84.10;;;;;;5097306;28;20201;-96
2021/10/15 09:03:14;;;;;;;16.57;10.83;;;13.50;84.00;;;;;;5110276;28;20175;-92
2021/10/15 09:06:12;;;;;;;15.33;10.40;;;13.70;81.70;;;;;;5115376;28;20179;-94
2021/10/15 09:08:58;;;;;;;19.17;11.03;;;13.80;79.10;;;;;;5093405;27;20184;-88
2021/10/15 09:11:49;;;;;;;15.47;10.17;;;13.80;81.50;;;;;;5134209;28;20180;-86
2021/10/15 09:14:24;;;;;;;14.07;10.93;;;13.90;82.60;;;;;;5135131;28;20188;-88
2021/10/15 09:16:53;;;;;;;26.07;21.23;;;13.90;82.00;;;;;;5137835;28;20238;-90
2021/10/15 09:19:40;;;;;;;19.43;11.57;;;13.90;82.70;;;;;;5136546;28;20158;-86
2021/10/15 09:22:30;;;;;;;16.17;10.40;;;14.00;83.40;;;;;;5119466;28;20193;-88
2021/10/15 09:25:05;;;;;;;14.60;10.47;;;14.10;83.00;;;;;;5138340;28;20168;-88
2021/10/15 09:27:41;;;;;;;15.93;10.40;;;14.30;81.40;;;;;;5130844;28;20165;-93
2021/10/15 09:30:38;;;;;;;17.97;10.70;;;14.30;82.10;;;;;;5131887;28;20224;-90
2021/10/15 09:33:07;;;;;;;17.37;10.47;;;14.10;85.00;;;;;;5111815;28;20263;-95
2021/10/15 09:35:34;;;;;;;14.20;10.73;;;14.20;85.10;;;;;;5129536;28;20163;-94
2021/10/15 09:38:10;;;;;;;19.57;10.83;;;14.30;85.70;;;;;;5127360;28;20186;-93
2021/10/15 09:40:42;;;;;;;17.87;11.47;;;14.30;88.20;;;;;;5089760;28;20183;-93
2021/10/15 09:43:13;;;;;;;15.47;10.43;;;14.20;90.60;;;;;;5107954;28;20219;-94
2021/10/15 09:45:52;;;;;;;17.53;10.23;;;14.30;90.30;;;;;;5094002;28;20275;-93
2021/10/15 09:48:20;;;;;;;16.03;11.40;;;14.40;88.80;;;;;;5115261;28;20195;-95
2021/10/15 09:51:17;;;;;;;17.03;10.57;;;14.40;87.40;;;;;;5123112;28;20195;-93
2021/10/15 09:54:15;;;;;;;17.63;10.80;;;14.40;90.80;;;;;;5138084;28;20195;-86
2021/10/15 09:56:51;;;;;;;13.60;10.67;;;14.40;90.40;;;;;;5139245;28;20641;-86
2021/10/15 09:59:17;;;;;;;18.13;11.17;;;14.60;89.90;;;;;;5139668;28;20170;-87
2021/10/15 10:01:43;;;;;;;15.17;11.43;;;14.50;90.80;;;;;;5137650;28;20198;-87
2021/10/15 10:04:12;;;;;;;17.07;12.13;;;14.60;91.40;;;;;;5131418;28;20287;-96
2021/10/15 10:06:38;;;;;;;18.10;12.33;;;14.60;92.10;;;;;;5120636;28;20178;-93
2021/10/15 10:09:21;;;;;;;18.03;12.43;;;14.50;92.20;;;;;;5103231;28;20183;-93
2021/10/15 10:11:52;;;;;;;17.63;13.53;;;14.60;93.10;;;;;;5104736;28;20226;-93
2021/10/15 10:14:20;;;;;;;18.47;13.50;;;14.60;94.10;;;;;;5104818;28;20239;-92
2021/10/15 10:16:49;;;;;;;17.47;12.27;;;14.50;94.80;;;;;;5124809;28;20591;-94
2021/10/15 10:19:17;;;;;;;17.47;12.33;;;14.20;98.30;;;;;;5105319;28;20218;-95
2021/10/15 10:21:44;;;;;;;21.90;16.83;;;14.20;99.90;;;;;;5103419;28;20171;-94
2021/10/15 10:24:26;;;;;;;22.53;15.47;;;14.20;99.90;;;;;;5121504;28;20260;-94
2021/10/15 10:26:56;;;;;;;15.83;13.10;;;14.10;99.90;;;;;;5124859;28;20168;-95
2021/10/15 10:29:22;;;;;;;15.37;13.77;;;14.00;99.90;;;;;;5110242;28;20211;-94
2021/10/15 10:31:51;;;;;;;19.67;15.53;;;13.90;99.90;;;;;;5101861;28;20188;-95
2021/10/15 10:34:28;;;;;;;16.17;14.10;;;13.90;99.90;;;;;;5102489;28;20181;-93
2021/10/15 10:37:06;;;;;;;20.07;13.87;;;13.90;99.90;;;;;;5123784;28;20178;-94
2021/10/15 10:39:32;;;;;;;12.37;10.30;;;13.80;99.90;;;;;;5107645;28;20184;-90
2021/10/15 10:42:06;;;;;;;12.90;10.40;;;13.60;99.90;;;;;;5128544;28;20180;-93
2021/10/15 10:44:40;;;;;;;13.33;9.10;;;13.50;99.90;;;;;;5133783;28;20215;-92
2021/10/15 10:47:14;;;;;;;12.87;8.90;;;13.50;99.90;;;;;;5135871;28;20186;-90
2021/10/15 10:50:05;;;;;;;7.60;5.03;;;13.30;99.90;;;;;;5133276;28;20210;-94
2021/10/15 10:52:31;;;;;;;5.83;2.10;;;12.80;99.90;;;;;;5130573;28;20187;-83
2021/10/15 10:54:58;;;;;;;6.13;2.30;;;12.70;99.90;;;;;;5125154;28;20186;-90
2021/10/15 10:57:32;;;;;;;6.93;2.47;;;12.70;99.90;;;;;;5130313;28;20241;-85
2021/10/15 11:00:24;;;;;;;5.60;2.07;;;12.70;99.90;;;;;;5129316;28;20660;-87
2021/10/15 11:02:58;;;;;;;7.70;2.60;;;12.80;99.90;;;;;;5118097;28;20163;-88
2021/10/15 11:05:33;;;;;;;9.87;2.80;;;12.80;99.90;;;;;;5119921;28;20159;-93
2021/10/15 11:08:24;;;;;;;7.97;2.73;;;12.90;99.90;;;;;;5119940;28;20584;-90
2021/10/15 11:11:13;;;;;;;6.07;2.77;;;12.90;99.90;;;;;;5120631;28;20263;-87
2021/10/15 11:13:39;;;;;;;11.63;2.80;;;12.90;99.90;;;;;;5100014;28;20171;-92
2021/10/15 11:16:24;;;;;;;6.73;3.10;;;12.90;99.90;;;;;;5102098;28;20194;-85
2021/10/15 11:18:50;;;;;;;6.73;3.07;;;12.90;99.90;;;;;;5120175;28;20159;-89
2021/10/15 11:21:16;;;;;;;5.10;2.97;;;12.70;99.90;;;;;;5120430;28;20534;-83
2021/10/15 11:23:43;;;;;;;6.37;3.10;;;12.90;99.90;;;;;;5104818;28;20186;-88
2021/10/15 11:26:09;;;;;;;8.73;3.10;;;12.90;99.90;;;;;;5123587;28;20161;-91
2021/10/15 11:28:35;;;;;;;6.17;2.80;;;13.00;99.90;;;;;;5103818;28;20182;-88
2021/10/15 11:31:08;;;;;;;6.73;3.80;;;13.10;99.90;;;;;;5121439;28;20561;-88
2021/10/15 11:33:38;;;;;;;8.60;3.33;;;13.20;99.90;;;;;;5104753;28;20563;-89
2021/10/15 11:36:04;;;;;;;5.40;3.20;;;13.10;99.90;;;;;;5104565;28;20168;-87
2021/10/15 11:38:30;;;;;;;6.33;3.70;;;13.20;99.90;;;;;;5121001;28;20206;-88
2021/10/15 11:41:05;;;;;;;10.33;3.60;;;13.30;99.90;;;;;;5120986;28;20175;-87
2021/10/15 11:43:37;;;;;;;4.63;2.40;;;13.30;99.90;;;;;;5121522;28;20232;-90
2021/10/15 11:46:06;;;;;;;5.57;2.73;;;13.30;99.90;;;;;;5121484;28;21035;-90
2021/10/15 11:48:37;;;;;;;8.33;3.13;;;13.40;99.90;;;;;;5120676;28;20173;-86
2021/10/15 11:51:06;;;;;;;4.53;1.90;;;13.50;99.90;;;;;;5102659;28;20621;-89
2021/10/15 11:53:37;;;;;;;4.43;1.97;;;13.70;99.90;;;;;;5104290;28;20195;-88
2021/10/15 11:56:16;;;;;;;6.70;1.60;;;13.70;98.70;;;;;;5123722;28;20183;-86
2021/10/15 11:58:51;;;;;;;5.00;1.70;;;13.70;97.20;;;;;;5121996;28;20175;-89
2021/10/15 12:01:19;;;;;;;7.07;2.23;;;13.70;96.70;;;;;;5104371;28;20169;-83
2021/10/15 12:03:58;;;;;;;6.17;2.23;;;13.70;97.60;;;;;;5104042;28;20176;-89
2021/10/15 12:06:30;;;;;;;7.60;2.53;;;13.90;97.00;;;;;;5121050;28;20175;-89
2021/10/15 12:09:11;;;;;;;8.23;2.20;;;14.00;96.20;;;;;;5122134;28;20174;-90
2021/10/15 12:11:37;;;;;;;7.67;2.50;;;14.10;95.90;;;;;;5103996;28;20586;-91
2021/10/15 12:14:09;;;;;;;7.13;2.20;;;14.20;94.90;;;;;;5121093;28;20174;-86
2021/10/15 12:17:05;;;;;;;6.47;2.47;;;14.20;94.70;;;;;;5124336;28;20294;-83
2021/10/15 12:19:47;;;;;;;5.90;2.30;;;14.30;94.80;;;;;;5102354;28;20177;-88
2021/10/15 12:22:18;;;;;;;7.50;2.33;;;14.10;94.20;;;;;;5123239;28;20162;-89
2021/10/15 12:24:54;;;;;;;12.40;2.70;;;14.20;94.60;;;;;;5123334;28;20171;-92
2021/10/15 12:27:24;;;;;;;6.43;2.43;;;14.20;91.20;;;;;;5115157;28;20181;-84
2021/10/15 12:30:06;;;;;;;5.73;2.10;;;14.20;88.80;;;;;;5105735;28;20209;-87
2021/10/15 12:32:35;;;;;;;5.37;1.90;;;14.20;87.60;;;;;;5128100;28;20660;-87
2021/10/15 12:35:25;;;;;;;6.97;2.03;;;14.30;86.50;;;;;;5128076;28;20261;-86
2021/10/15 12:37:55;;;;;;;6.50;1.97;;;14.40;82.10;;;;;;5129437;28;20174;-89
2021/10/15 12:40:25;;;;;;;7.90;2.20;;;14.60;81.10;;;;;;5127052;28;20173;-88
2021/10/15 12:43:03;;;;;;;5.03;2.20;;;14.40;70.70;;;;;;5114842;28;20183;-83
2021/10/15 12:45:42;;;;;;;7.77;2.17;;;14.40;77.80;;;;;;5139006;28;20163;-85
2021/10/15 12:48:19;;;;;;;6.13;2.33;;;14.60;76.10;;;;;;5138426;28;20296;-87
2021/10/15 12:51:09;;;;;;;8.57;2.23;;;14.70;70.20;;;;;;5129694;28;20224;-91
2021/10/15 12:53:39;;;;;;;8.13;2.27;;;14.90;64.00;;;;;;5123441;28;20204;-92
2021/10/15 12:56:19;;;;;;;7.23;2.57;;;14.90;59.70;;;;;;5107592;28;20179;-90
2021/10/15 12:58:54;;;;;;;6.97;2.10;;;15.00;61.30;;;;;;5109084;28;20167;-91
2021/10/15 13:01:25;;;;;;;9.67;2.40;;;15.10;58.70;;;;;;5124907;28;20265;-91
2021/10/15 13:03:51;;;;;;;6.50;2.23;;;15.10;57.50;;;;;;5124108;28;20215;-86
2021/10/15 13:06:19;;;;;;;7.97;2.60;;;15.10;55.00;;;;;;5123863;28;20210;-92
2021/10/15 13:08:49;;;;;;;8.80;2.50;;;15.30;56.00;;;;;;5125782;28;20166;-85
2021/10/15 13:11:20;;;;;;;6.53;2.20;;;15.40;54.60;;;;;;5127140;28;20210;-91
2021/10/15 13:13:51;;;;;;;9.00;2.50;;;15.50;51.80;;;;;;5107790;28;20160;-90
2021/10/15 13:16:20;;;;;;;7.93;2.10;;;15.50;49.50;;;;;;5095863;28;20293;-91
2021/10/15 13:18:49;;;;;;;9.00;2.80;;;15.50;48.20;;;;;;5115067;28;20175;-90